首页
METAR-TAF:

METAR-TAF

机场 :

McGuire Air Force Base

Wrightstown, 新泽西州, 美国

纬度: 40-01N, 经度: 074-36W, 海拔: 41米

当前天气观测

该预报发布于10分钟前的15:56 UTC
风速6节,风向东南
温度 8°C
湿度 93%
气压 1027 hPa
能見度: 16.1公里
阴天层高于5000英尺

METAR: KWRI 131556Z 13006KT 10SM OVC050 08/07 A3032 RMK AO2A SLP268 T00800071

时间: 11:06 (16:06 UTC)

预报

该预报发布于6小时和6分钟前的10:00 UTC
预报有效从13日的 10点(UTC)到 14日的 16点(UTC)
风速4节,风向
能见度10公里或以上
多云层高于4500英尺
成为
从 13日的 16点(UTC)到 13日的 18点(UTC)
风速8节,风向东转东南
能見度: 8000
阴天层高于1500英尺
小雨, 轻雾
成为
从 13日的 21点(UTC)到 13日的 23点(UTC)
风速7节,风向
能見度: 4800
阴天层高于600英尺
雨, 轻雾
成为
从 14日的 11点(UTC)到 14日的 12点(UTC)
风速7节,风向
能見度: 4800
阴天层高于500英尺
轻雾

TAF: KWRI 131000Z 1310/1416 10004KT 9999 BKN045 QNH3025INS BECMG 1316/1318 11008KT 8000 -RA BR OVC015 QNH3010INS BECMG 1321/1323 08007KT 4800 RA BR OVC006 QNH2943INS BECMG 1411/1412 10007KT 4800 BR OVC005 QNH2927INS TX10/1318Z TNM03/1310Z

超过4000个机场的气象观测和天气预报(METAR&TAF报告)。

可查询的气象台以黄色和红色小点在地图上表示。

将鼠标移到小点上方,可查看气象台名称。

然后点击查看天气观测和预报。

如需切换地图:点击带黑十字的绿色按钮放大地图;点击带横线的绿色按钮缩小地图;或者点击绿色箭头查看邻近地区的地图。


METAR-TAF: